createdAt,value
2018-01-11T00:00:31.853Z,1014.93
2018-01-11T00:01:31.075Z,1014.95
2018-01-11T00:02:31.293Z,1014.94
2018-01-11T00:03:31.500Z,1015
2018-01-11T00:04:31.873Z,1014.98
2018-01-11T00:05:31.146Z,1014.99
2018-01-11T00:06:31.314Z,1015.02
2018-01-11T00:07:31.673Z,1014.97
2018-01-11T00:08:31.074Z,1015
2018-01-11T00:09:31.307Z,1015
2018-01-11T00:10:31.595Z,1014.96
2018-01-11T00:11:30.962Z,1014.96
2018-01-11T00:12:31.145Z,1014.95
2018-01-11T00:13:31.404Z,1014.96
2018-01-11T00:14:30.578Z,1014.94
2018-01-11T00:15:30.913Z,1014.91
2018-01-11T00:16:31.226Z,1014.89
2018-01-11T00:17:31.257Z,1014.92
2018-01-11T00:18:31.265Z,1014.92
2018-01-11T00:19:30.571Z,1014.95
2018-01-11T00:20:30.668Z,1014.94
2018-01-11T00:21:30.746Z,1014.95
2018-01-11T00:22:30.915Z,1014.96
2018-01-11T00:23:31.048Z,1014.93
2018-01-11T00:24:31.425Z,1014.94
2018-01-11T00:25:30.745Z,1014.92
2018-01-11T00:26:31.084Z,1014.92
2018-01-11T00:27:31.444Z,1014.92
2018-01-11T00:28:30.754Z,1014.91
2018-01-11T00:29:30.944Z,1014.92
2018-01-11T00:30:31.289Z,1014.92
2018-01-11T00:31:30.535Z,1014.89
2018-01-11T00:32:30.919Z,1014.9
2018-01-11T00:33:31.269Z,1014.95
2018-01-11T00:34:30.470Z,1014.95
2018-01-11T00:35:30.797Z,1014.97
2018-01-11T00:36:31.033Z,1014.98
2018-01-11T00:37:31.251Z,1014.96
2018-01-11T00:38:30.693Z,1015.02
2018-01-11T00:39:30.978Z,1014.97
2018-01-11T00:40:31.124Z,1014.98
2018-01-11T00:41:30.479Z,1015
2018-01-11T00:42:30.755Z,1015.01
2018-01-11T00:43:31.120Z,1015
2018-01-11T00:44:30.672Z,1014.99
2018-01-11T00:45:31.058Z,1014.98
2018-01-11T00:46:31.319Z,1014.97
2018-01-11T00:47:30.492Z,1014.98
2018-01-11T00:48:30.582Z,1014.97
2018-01-11T00:49:30.896Z,1014.98
2018-01-11T00:50:31.019Z,1014.95
2018-01-11T00:51:31.127Z,1014.97
2018-01-11T00:52:30.504Z,1015.01
2018-01-11T00:53:30.741Z,1015.04
2018-01-11T00:54:31.201Z,1015.01
2018-01-11T00:55:31.377Z,1014.99
2018-01-11T00:56:30.563Z,1015.04
2018-01-11T00:57:30.821Z,1015.01
2018-01-11T00:58:30.944Z,1015.05
2018-01-11T00:59:31.214Z,1015.01
2018-01-11T01:00:31.446Z,1015.03
2018-01-11T01:01:30.712Z,1014.99
2018-01-11T01:02:31.022Z,1015.02
2018-01-11T01:03:31.399Z,1015.05
2018-01-11T01:04:30.575Z,1015.04
2018-01-11T01:05:30.863Z,1015.03
2018-01-11T01:06:31.144Z,1015.03
2018-01-11T01:07:30.541Z,1015.08
2018-01-11T01:08:30.912Z,1015.05
2018-01-11T01:09:31.270Z,1015.07
2018-01-11T01:10:30.508Z,1015.1
2018-01-11T01:11:30.618Z,1015.12
2018-01-11T01:12:31.223Z,1015.12
2018-01-11T01:13:31.451Z,1015.12
2018-01-11T01:14:31.082Z,1015.11
2018-01-11T01:15:31.221Z,1015.13
2018-01-11T01:16:31.672Z,1015.15
2018-01-11T01:17:31.917Z,1015.13
2018-01-11T01:18:31.066Z,1015.15
2018-01-11T01:19:31.417Z,1015.14
2018-01-11T01:20:31.662Z,1015.13
2018-01-11T01:21:32.124Z,1015.16
2018-01-11T01:22:31.480Z,1015.14
2018-01-11T01:23:31.713Z,1015.14
2018-01-11T01:24:31.930Z,1015.17
2018-01-11T01:25:31.661Z,1015.14
2018-01-11T01:26:32.016Z,1015.15
2018-01-11T01:27:31.403Z,1015.19
2018-01-11T01:28:31.797Z,1015.11
2018-01-11T01:29:31.090Z,1015.18
2018-01-11T01:30:31.324Z,1015.12
2018-01-11T01:31:31.636Z,1015.12
2018-01-11T01:32:32.064Z,1015.12
2018-01-11T01:33:31.441Z,1015.13
2018-01-11T01:36:32.088Z,1015.19
2018-01-11T01:37:31.260Z,1015.23
2018-01-11T01:38:31.450Z,1015.19
2018-01-11T01:39:31.671Z,1015.18
2018-01-11T01:40:31.948Z,1015.18
2018-01-11T01:41:31.210Z,1015.17
2018-01-11T01:42:31.624Z,1015.13
2018-01-11T01:43:31.886Z,1015.15
2018-01-11T01:44:31.090Z,1015.14
2018-01-11T01:45:30.342Z,1015.12
2018-01-11T01:46:30.840Z,1015.14
2018-01-11T01:47:30.157Z,1015.11
2018-01-11T01:48:30.483Z,1015.09
2018-01-11T01:49:30.817Z,1015.11
2018-01-11T01:50:30.982Z,1015.13
2018-01-11T01:51:30.128Z,1015.13
2018-01-11T01:52:30.537Z,1015.08
2018-01-11T01:53:30.829Z,1015.09
2018-01-11T01:54:30.150Z,1015.04
2018-01-11T01:55:30.297Z,1015.11
2018-01-11T01:56:30.337Z,1015.08
2018-01-11T01:57:30.860Z,1015.11
2018-01-11T01:58:30.231Z,1015.11
2018-01-11T01:59:30.548Z,1015.15
2018-01-11T02:00:30.757Z,1015.13
2018-01-11T02:01:30.918Z,1015.13
2018-01-11T02:02:30.124Z,1015.13
2018-01-11T02:03:30.386Z,1015.13
2018-01-11T02:04:30.594Z,1015.15
2018-01-11T02:05:30.753Z,1015.12
2018-01-11T02:06:31.048Z,1015.16
2018-01-11T02:07:30.395Z,1015.12
2018-01-11T02:08:30.468Z,1015.14
2018-01-11T02:09:30.626Z,1015.13
2018-01-11T02:10:30.747Z,1015.16
2018-01-11T02:11:31.289Z,1015.11
2018-01-11T02:12:30.318Z,1015.15
2018-01-11T02:13:30.535Z,1015.13
2018-01-11T02:14:30.741Z,1015.16
2018-01-11T02:15:30.902Z,1015.14
2018-01-11T02:16:31.289Z,1015.14
2018-01-11T02:17:31.571Z,1015.11
2018-01-11T02:18:30.792Z,1015.14
2018-01-11T02:19:31.838Z,1015.14
2018-01-11T02:20:31.054Z,1015.15
2018-01-11T02:21:31.071Z,1015.19
2018-01-11T02:22:31.255Z,1015.16
2018-01-11T02:23:31.488Z,1015.13
2018-01-11T02:24:31.680Z,1015.2
2018-01-11T02:25:31.070Z,1015.14
2018-01-11T02:26:31.397Z,1015.17
2018-01-11T02:27:31.699Z,1015.2
2018-01-11T02:29:35.216Z,1015.19
2018-01-11T02:30:31.593Z,1015.19
2018-01-11T02:31:30.872Z,1015.2
2018-01-11T02:32:31.093Z,1015.15
2018-01-11T02:33:31.382Z,1015.16
2018-01-11T02:34:31.665Z,1015.2
2018-01-11T02:35:31.322Z,1015.16
2018-01-11T02:36:31.446Z,1015.15
2018-01-11T02:37:31.658Z,1015.18
2018-01-11T02:38:30.969Z,1015.12
2018-01-11T02:39:31.318Z,1015.14
2018-01-11T02:40:31.558Z,1015.16
2018-01-11T02:41:31.727Z,1015.17
2018-01-11T02:42:31.074Z,1015.19
2018-01-11T02:43:31.302Z,1015.18
2018-01-11T02:45:31.514Z,1015.13
2018-01-11T02:46:30.926Z,1015.12
2018-01-11T02:47:31.047Z,1015.12
2018-01-11T02:48:31.183Z,1015.13
2018-01-11T02:49:31.378Z,1015.08
2018-01-11T02:50:30.694Z,1015.1
2018-01-11T02:51:30.884Z,1015.07
2018-01-11T02:52:31.054Z,1015.1
2018-01-11T02:53:31.259Z,1015.09
2018-01-11T02:54:30.527Z,1015.12
2018-01-11T02:55:30.740Z,1015.11
2018-01-11T02:56:31.040Z,1015.15
2018-01-11T02:57:31.330Z,1015.19
2018-01-11T02:58:30.525Z,1015.15
2018-01-11T02:59:30.782Z,1015.2
2018-01-11T03:00:31.200Z,1015.2
2018-01-11T03:01:30.669Z,1015.13
2018-01-11T03:02:30.912Z,1015.17
2018-01-11T03:03:31.171Z,1015.15
2018-01-11T03:04:30.443Z,1015.19
2018-01-11T03:05:30.734Z,1015.16
2018-01-11T03:06:31.071Z,1015.15
2018-01-11T03:07:30.496Z,1015.14
2018-01-11T03:08:30.817Z,1015.14
2018-01-11T03:09:31.144Z,1015.14
2018-01-11T03:10:31.453Z,1015.16
2018-01-11T03:11:30.773Z,1015.15
2018-01-11T03:12:31.242Z,1015.19
2018-01-11T03:13:30.558Z,1015.18
2018-01-11T03:14:30.979Z,1015.24
2018-01-11T03:15:31.307Z,1015.24
2018-01-11T03:16:30.861Z,1015.22
2018-01-11T03:17:31.267Z,1015.26
2018-01-11T03:18:31.615Z,1015.21
2018-01-11T03:19:30.852Z,1015.22
2018-01-11T03:20:31.230Z,1015.24
2018-01-11T03:21:31.549Z,1015.23
2018-01-11T03:22:31.032Z,1015.24
2018-01-11T03:23:31.337Z,1015.22
2018-01-11T03:24:31.553Z,1015.19
2018-01-11T03:25:30.834Z,1015.2
2018-01-11T03:26:31.264Z,1015.24
2018-01-11T03:27:31.656Z,1015.22
2018-01-11T03:28:31.008Z,1015.23
2018-01-11T03:29:31.207Z,1015.23
2018-01-11T03:30:31.508Z,1015.23
2018-01-11T03:31:31.754Z,1015.22
2018-01-11T03:32:30.943Z,1015.23
2018-01-11T03:33:31.533Z,1015.23
2018-01-11T03:34:30.926Z,1015.24
2018-01-11T03:35:31.478Z,1015.23
2018-01-11T03:36:30.858Z,1015.26
2018-01-11T03:37:31.109Z,1015.29
2018-01-11T03:38:31.291Z,1015.26
2018-01-11T03:39:31.482Z,1015.28
2018-01-11T03:40:30.975Z,1015.28
2018-01-11T03:41:31.137Z,1015.26
2018-01-11T03:42:31.476Z,1015.28
2018-01-11T03:43:30.989Z,1015.31
2018-01-11T03:44:31.305Z,1015.32
2018-01-11T03:45:31.731Z,1015.31
2018-01-11T03:46:31.226Z,1015.3
2018-01-11T03:47:30.669Z,1015.32
2018-01-11T03:48:31.098Z,1015.33
2018-01-11T03:49:30.410Z,1015.33
2018-01-11T03:50:30.828Z,1015.36
2018-01-11T03:51:31.110Z,1015.31
2018-01-11T03:52:30.388Z,1015.34
2018-01-11T03:53:30.723Z,1015.32
2018-01-11T03:54:31.413Z,1015.3
2018-01-11T03:55:30.630Z,1015.31
2018-01-11T03:56:31.053Z,1015.29
2018-01-11T03:57:30.451Z,1015.3
2018-01-11T03:58:30.753Z,1015.34
2018-01-11T03:59:31.093Z,1015.33
2018-01-11T04:00:30.567Z,1015.33
2018-01-11T04:01:30.909Z,1015.37
2018-01-11T04:02:30.295Z,1015.37
2018-01-11T04:03:30.610Z,1015.38
2018-01-11T04:04:31.027Z,1015.41
2018-01-11T04:05:30.587Z,1015.37
2018-01-11T04:06:30.917Z,1015.43
2018-01-11T04:07:31.150Z,1015.42
2018-01-11T04:08:30.445Z,1015.4
2018-01-11T04:09:30.545Z,1015.48
2018-01-11T04:10:30.664Z,1015.44
2018-01-11T04:11:30.872Z,1015.4
2018-01-11T04:12:30.251Z,1015.47
2018-01-11T04:13:30.348Z,1015.48
2018-01-11T04:14:30.520Z,1015.47
2018-01-11T04:15:30.820Z,1015.47
2018-01-11T04:16:30.175Z,1015.5
2018-01-11T04:17:30.375Z,1015.52
2018-01-11T04:18:30.611Z,1015.54
2018-01-11T04:19:30.961Z,1015.54
2018-01-11T04:20:31.077Z,1015.55
2018-01-11T04:21:31.144Z,1015.49
2018-01-11T04:22:31.339Z,1015.51
2018-01-11T04:23:30.633Z,1015.56
2018-01-11T04:24:31.050Z,1015.54
2018-01-11T04:25:31.252Z,1015.55
2018-01-11T04:26:30.654Z,1015.56
2018-01-11T04:27:30.746Z,1015.57
2018-01-11T04:28:30.885Z,1015.59
2018-01-11T04:29:31.244Z,1015.61
2018-01-11T04:30:30.500Z,1015.6
2018-01-11T04:31:30.611Z,1015.6
2018-01-11T04:32:30.848Z,1015.62
2018-01-11T04:33:31.018Z,1015.59
2018-01-11T04:34:31.275Z,1015.68
2018-01-11T04:35:30.699Z,1015.73
2018-01-11T04:36:30.967Z,1015.73
2018-01-11T04:37:31.422Z,1015.76
2018-01-11T04:38:30.735Z,1015.73
2018-01-11T04:39:31.079Z,1015.78
2018-01-11T04:40:31.356Z,1015.73
2018-01-11T04:41:30.605Z,1015.77
2018-01-11T04:42:31.048Z,1015.81
2018-01-11T04:43:31.279Z,1015.8
2018-01-11T04:44:30.496Z,1015.82
2018-01-11T04:45:30.876Z,1015.84
2018-01-11T04:46:31.393Z,1015.85
2018-01-11T04:47:30.689Z,1015.82
2018-01-11T04:48:30.856Z,1015.87
2018-01-11T04:49:31.003Z,1015.83
2018-01-11T04:50:31.117Z,1015.85
2018-01-11T04:51:31.457Z,1015.88
2018-01-11T04:52:31.793Z,1015.92
2018-01-11T04:53:30.917Z,1015.92
2018-01-11T04:54:31.096Z,1015.89
2018-01-11T04:55:31.319Z,1015.92
2018-01-11T04:56:31.381Z,1015.94
2018-01-11T04:57:31.614Z,1015.91
2018-01-11T04:58:30.998Z,1015.95
2018-01-11T04:59:31.234Z,1015.97
2018-01-11T05:00:31.398Z,1016
2018-01-11T05:01:31.530Z,1015.99
2018-01-11T05:02:30.846Z,1016
2018-01-11T05:03:31.104Z,1016
2018-01-11T05:04:31.696Z,1015.98
2018-01-11T05:05:31.359Z,1016.05
2018-01-11T05:06:31.461Z,1016.01
2018-01-11T05:07:31.653Z,1016.07
2018-01-11T05:08:30.934Z,1016.04
2018-01-11T05:09:31.261Z,1015.98
2018-01-11T05:10:31.522Z,1016.03
2018-01-11T05:11:31.665Z,1016.01
2018-01-11T05:12:31.805Z,1016.04
2018-01-11T05:13:31.067Z,1016.04
2018-01-11T05:14:31.134Z,1016.07
2018-01-11T05:15:31.325Z,1016.04
2018-01-11T05:16:31.486Z,1016.05
2018-01-11T05:17:31.860Z,1016.02
2018-01-11T05:18:31.125Z,1016.05
2018-01-11T05:19:31.327Z,1016.02
2018-01-11T05:20:31.642Z,1016.06
2018-01-11T05:21:32.035Z,1016.05
2018-01-11T05:22:31.325Z,1016.05
2018-01-11T05:23:31.565Z,1016.04
2018-01-11T05:24:30.742Z,1016.05
2018-01-11T05:25:30.807Z,1016.08
2018-01-11T05:26:30.953Z,1016.11
2018-01-11T05:27:31.484Z,1016.09
2018-01-11T05:28:31.647Z,1016.1
2018-01-11T05:29:31.823Z,1016.09
2018-01-11T05:30:31.293Z,1016.13
2018-01-11T05:31:31.489Z,1016.15
2018-01-11T05:32:31.647Z,1016.16
2018-01-11T05:33:30.811Z,1016.16
2018-01-11T05:34:30.964Z,1016.2
2018-01-11T05:35:31.248Z,1016.15
2018-01-11T05:36:31.740Z,1016.18
2018-01-11T05:37:30.984Z,1016.16
2018-01-11T05:38:31.460Z,1016.2
2018-01-11T05:39:31.714Z,1016.2
2018-01-11T05:40:30.859Z,1016.19
2018-01-11T05:41:31.281Z,1016.16
2018-01-11T05:42:31.937Z,1016.21
2018-01-11T05:43:31.483Z,1016.16
2018-01-11T05:44:31.914Z,1016.18
2018-01-11T05:45:31.280Z,1016.17
2018-01-11T05:46:32.162Z,1016.17
2018-01-11T05:47:31.330Z,1016.18
2018-01-11T05:48:31.711Z,1016.2
2018-01-11T05:49:30.805Z,1016.19
2018-01-11T05:50:31.034Z,1016.22
2018-01-11T05:51:31.286Z,1016.19
2018-01-11T05:52:30.854Z,1016.22
2018-01-11T05:53:31.040Z,1016.23
2018-01-11T05:54:31.276Z,1016.22
2018-01-11T05:55:31.658Z,1016.26
2018-01-11T05:56:31.150Z,1016.25
2018-01-11T05:57:31.526Z,1016.26
2018-01-11T05:58:30.875Z,1016.28
2018-01-11T05:59:31.172Z,1016.34
2018-01-11T06:00:31.509Z,1016.32
2018-01-11T06:01:30.788Z,1016.32
2018-01-11T06:02:31.245Z,1016.27
2018-01-11T06:03:30.728Z,1016.32
2018-01-11T06:04:31.029Z,1016.32
2018-01-11T06:05:31.225Z,1016.34
2018-01-11T06:06:31.439Z,1016.32
2018-01-11T06:07:30.635Z,1016.32
2018-01-11T06:08:30.898Z,1016.34
2018-01-11T06:09:31.198Z,1016.41
2018-01-11T06:10:31.274Z,1016.36
2018-01-11T06:11:31.484Z,1016.39
2018-01-11T06:12:30.724Z,1016.37
2018-01-11T06:13:30.857Z,1016.36
2018-01-11T06:14:31.241Z,1016.39
2018-01-11T06:15:31.398Z,1016.42
2018-01-11T06:16:31.700Z,1016.42
2018-01-11T06:17:30.894Z,1016.45
2018-01-11T06:18:31.014Z,1016.44
2018-01-11T06:19:31.442Z,1016.42
2018-01-11T06:20:30.805Z,1016.45
2018-01-11T06:21:30.924Z,1016.46
2018-01-11T06:22:31.002Z,1016.45
2018-01-11T06:23:31.348Z,1016.46
2018-01-11T06:24:30.935Z,1016.5
2018-01-11T06:25:31.249Z,1016.49
2018-01-11T06:26:30.437Z,1016.49
2018-01-11T06:27:30.883Z,1016.5
2018-01-11T06:28:31.132Z,1016.49
2018-01-11T06:29:30.608Z,1016.54
2018-01-11T06:30:30.742Z,1016.52
2018-01-11T06:31:30.930Z,1016.49
2018-01-11T06:32:30.490Z,1016.49
2018-01-11T06:33:30.658Z,1016.49
2018-01-11T06:34:30.966Z,1016.53
2018-01-11T06:35:30.424Z,1016.56
2018-01-11T06:36:30.725Z,1016.53
2018-01-11T06:37:31.046Z,1016.57
2018-01-11T06:38:30.359Z,1016.52
2018-01-11T06:39:30.641Z,1016.55
2018-01-11T06:40:30.494Z,1016.55
2018-01-11T06:41:30.692Z,1016.53
2018-01-11T06:42:30.993Z,1016.54
2018-01-11T06:43:31.321Z,1016.57
2018-01-11T06:44:30.662Z,1016.59
2018-01-11T06:45:31.203Z,1016.61
2018-01-11T06:46:30.478Z,1016.58
2018-01-11T06:47:30.629Z,1016.59
2018-01-11T06:48:30.763Z,1016.61
2018-01-11T06:49:31.039Z,1016.62
2018-01-11T06:50:31.464Z,1016.65
2018-01-11T06:51:30.709Z,1016.65
2018-01-11T06:52:30.836Z,1016.7
2018-01-11T06:53:31.058Z,1016.69
2018-01-11T06:54:31.281Z,1016.7
2018-01-11T06:55:30.714Z,1016.7
2018-01-11T06:56:30.876Z,1016.76
2018-01-11T06:57:31.086Z,1016.78
2018-01-11T06:58:31.215Z,1016.78
2018-01-11T06:59:30.358Z,1016.76
2018-01-11T07:00:30.715Z,1016.8
2018-01-11T07:01:30.950Z,1016.82
2018-01-11T07:02:31.202Z,1016.8
2018-01-11T07:03:30.476Z,1016.82
2018-01-11T07:04:30.839Z,1016.82
2018-01-11T07:05:31.100Z,1016.84
2018-01-11T07:06:31.242Z,1016.81
2018-01-11T07:07:30.565Z,1016.82
2018-01-11T07:08:30.697Z,1016.88
2018-01-11T07:09:30.834Z,1016.83
2018-01-11T07:10:31.150Z,1016.88
2018-01-11T07:11:30.314Z,1016.91
2018-01-11T07:12:30.426Z,1016.88
2018-01-11T07:13:30.617Z,1016.94
2018-01-11T07:14:31.032Z,1016.92
2018-01-11T07:15:31.289Z,1016.93
2018-01-11T07:16:30.863Z,1016.96
2018-01-11T07:17:31.033Z,1016.96
2018-01-11T07:18:30.426Z,1017
2018-01-11T07:19:30.762Z,1017.01
2018-01-11T07:20:30.948Z,1017.04
2018-01-11T07:21:31.453Z,1017.06
2018-01-11T07:22:30.847Z,1017.07
2018-01-11T07:23:31.152Z,1017.06
2018-01-11T07:24:30.346Z,1017.06
2018-01-11T07:25:30.537Z,1017.08
2018-01-11T07:26:30.864Z,1017.09
2018-01-11T07:27:31.207Z,1017.1
2018-01-11T07:28:30.656Z,1017.11
2018-01-11T07:29:30.908Z,1017.13
2018-01-11T07:30:31.169Z,1017.14
2018-01-11T07:31:30.447Z,1017.15
2018-01-11T07:32:30.738Z,1017.17
2018-01-11T07:33:31.127Z,1017.16
2018-01-11T07:34:30.511Z,1017.22
2018-01-11T07:35:31.526Z,1017.26
2018-01-11T07:36:30.633Z,1017.28
2018-01-11T07:37:30.819Z,1017.23
2018-01-11T07:38:30.887Z,1017.23
2018-01-11T07:39:30.440Z,1017.25
2018-01-11T07:40:30.884Z,1017.24
2018-01-11T07:41:31.091Z,1017.23
2018-01-11T07:42:30.482Z,1017.27
2018-01-11T07:43:30.657Z,1017.28
2018-01-11T07:44:30.924Z,1017.28
2018-01-11T07:45:31.109Z,1017.29
2018-01-11T07:46:31.171Z,1017.29
2018-01-11T07:47:30.414Z,1017.32
2018-01-11T07:48:30.556Z,1017.3
2018-01-11T07:49:30.722Z,1017.29
2018-01-11T07:50:31.001Z,1017.32
2018-01-11T07:51:31.144Z,1017.33
2018-01-11T07:52:30.423Z,1017.34
2018-01-11T07:53:30.662Z,1017.35
2018-01-11T07:54:30.860Z,1017.35
2018-01-11T07:55:31.181Z,1017.35
2018-01-11T07:56:30.480Z,1017.38
2018-01-11T07:57:30.729Z,1017.38
2018-01-11T07:58:30.914Z,1017.39
2018-01-11T07:59:31.260Z,1017.45
2018-01-11T08:00:30.676Z,1017.46
2018-01-11T08:01:30.888Z,1017.48
2018-01-11T08:02:31.117Z,1017.49
2018-01-11T08:03:30.470Z,1017.53
2018-01-11T08:04:30.749Z,1017.5
2018-01-11T08:05:30.937Z,1017.52
2018-01-11T08:06:31.024Z,1017.54
2018-01-11T08:07:31.186Z,1017.57
2018-01-11T08:08:30.567Z,1017.59
2018-01-11T08:09:31.159Z,1017.57
2018-01-11T08:10:30.446Z,1017.59
2018-01-11T08:11:30.968Z,1017.59
2018-01-11T08:12:31.307Z,1017.63
2018-01-11T08:13:30.714Z,1017.63
2018-01-11T08:14:31.155Z,1017.64
2018-01-11T08:15:30.495Z,1017.64
2018-01-11T08:16:30.786Z,1017.66
2018-01-11T08:17:31.175Z,1017.69
2018-01-11T08:18:30.471Z,1017.66
2018-01-11T08:19:30.741Z,1017.67
2018-01-11T08:20:30.958Z,1017.69
2018-01-11T08:21:31.162Z,1017.69
2018-01-11T08:22:30.727Z,1017.71
2018-01-11T08:23:30.895Z,1017.75
2018-01-11T08:24:31.163Z,1017.78
2018-01-11T08:25:31.510Z,1017.77
2018-01-11T08:26:30.771Z,1017.77
2018-01-11T08:27:31.074Z,1017.79
2018-01-11T08:28:31.248Z,1017.79
2018-01-11T08:29:31.565Z,1017.81
2018-01-11T08:30:30.938Z,1017.81
2018-01-11T08:31:31.344Z,1017.82
2018-01-11T08:32:31.396Z,1017.84
2018-01-11T08:33:30.706Z,1017.87
2018-01-11T08:34:30.806Z,1017.87
2018-01-11T08:35:31.095Z,1017.84
2018-01-11T08:36:31.302Z,1017.87
2018-01-11T08:37:31.497Z,1017.88
2018-01-11T08:38:31.726Z,1017.86
2018-01-11T08:39:30.972Z,1017.86
2018-01-11T08:40:31.399Z,1017.85
2018-01-11T08:41:31.639Z,1017.91
2018-01-11T08:42:30.713Z,1017.89
2018-01-11T08:43:30.940Z,1017.95
2018-01-11T08:44:31.352Z,1017.94
2018-01-11T08:45:31.401Z,1017.98
2018-01-11T08:46:31.689Z,1017.98
2018-01-11T08:47:30.927Z,1018.07
2018-01-11T08:48:31.205Z,1018.02
2018-01-11T08:49:31.518Z,1018.01
2018-01-11T08:50:30.803Z,1018.04
2018-01-11T08:51:31.148Z,1018.05
2018-01-11T08:52:31.488Z,1018.03
2018-01-11T08:53:30.679Z,1018.09
2018-01-11T08:54:30.848Z,1018.05
2018-01-11T08:55:31.284Z,1018.09
2018-01-11T08:56:30.604Z,1018.12
2018-01-11T08:57:30.779Z,1018.1
2018-01-11T08:58:31.193Z,1018.1
2018-01-11T08:59:31.411Z,1018.12
2018-01-11T09:00:30.583Z,1018.14
2018-01-11T09:01:30.546Z,1018.14
2018-01-11T09:02:30.595Z,1018.14
2018-01-11T09:03:30.754Z,1018.15
2018-01-11T09:04:30.789Z,1018.15
2018-01-11T09:05:30.810Z,1018.16
2018-01-11T09:06:31.356Z,1018.18
2018-01-11T09:07:30.682Z,1018.21
2018-01-11T09:08:31.174Z,1018.19
2018-01-11T09:09:31.456Z,1018.2
2018-01-11T09:10:30.809Z,1018.19
2018-01-11T09:11:31.105Z,1018.2
2018-01-11T09:12:31.353Z,1018.19
2018-01-11T09:13:30.632Z,1018.21
2018-01-11T09:14:30.954Z,1018.24
2018-01-11T09:15:31.133Z,1018.25
2018-01-11T09:16:31.522Z,1018.23
2018-01-11T09:17:30.987Z,1018.27
2018-01-11T09:18:31.121Z,1018.22
2018-01-11T09:19:31.532Z,1018.23
2018-01-11T09:20:30.661Z,1018.26
2018-01-11T09:21:30.946Z,1018.24
2018-01-11T09:22:31.205Z,1018.25
2018-01-11T09:23:31.478Z,1018.29
2018-01-11T09:24:30.554Z,1018.24
2018-01-11T09:25:30.913Z,1018.26
2018-01-11T09:26:31.127Z,1018.23
2018-01-11T09:27:31.321Z,1018.27
2018-01-11T09:28:30.710Z,1018.26
2018-01-11T09:29:31.028Z,1018.28
2018-01-11T09:30:31.656Z,1018.3
2018-01-11T09:31:31.065Z,1018.31
2018-01-11T09:32:31.276Z,1018.34
2018-01-11T09:33:31.417Z,1018.34
2018-01-11T09:34:30.718Z,1018.34
2018-01-11T09:35:31.126Z,1018.35
2018-01-11T09:36:31.334Z,1018.37
2018-01-11T09:37:30.820Z,1018.34
2018-01-11T09:38:31.088Z,1018.33
2018-01-11T09:39:31.486Z,1018.35
2018-01-11T09:40:30.880Z,1018.31
2018-01-11T09:41:31.142Z,1018.3
2018-01-11T09:42:30.455Z,1018.34
2018-01-11T09:43:30.839Z,1018.33
2018-01-11T09:44:30.901Z,1018.37
2018-01-11T09:45:31.103Z,1018.38
2018-01-11T09:46:31.188Z,1018.39
2018-01-11T09:47:31.369Z,1018.37
2018-01-11T09:48:30.820Z,1018.41
2018-01-11T09:49:31.020Z,1018.41
2018-01-11T09:50:31.246Z,1018.41
2018-01-11T09:51:31.276Z,1018.41
2018-01-11T09:52:31.440Z,1018.43
2018-01-11T09:53:30.774Z,1018.46
2018-01-11T09:54:31.038Z,1018.49
2018-01-11T09:55:31.236Z,1018.52
2018-01-11T09:56:31.449Z,1018.5
2018-01-11T09:57:31.625Z,1018.53
2018-01-11T09:58:31.676Z,1018.49
2018-01-11T09:59:31.722Z,1018.53
2018-01-11T10:00:31.891Z,1018.51
2018-01-11T10:01:31.269Z,1018.53
2018-01-11T10:02:31.492Z,1018.52
2018-01-11T10:03:31.675Z,1018.51
2018-01-11T10:04:31.772Z,1018.51
2018-01-11T10:05:32.774Z,1018.51
2018-01-11T10:06:31.758Z,1018.56
2018-01-11T10:07:31.154Z,1018.59
2018-01-11T10:08:31.441Z,1018.55
2018-01-11T10:09:31.178Z,1018.5
2018-01-11T10:10:31.491Z,1018.55
2018-01-11T10:11:31.564Z,1018.58
2018-01-11T10:12:31.872Z,1018.57
2018-01-11T10:13:31.003Z,1018.6
2018-01-11T10:14:31.331Z,1018.6
2018-01-11T10:15:31.603Z,1018.61
2018-01-11T10:16:32.068Z,1018.58
2018-01-11T10:17:31.388Z,1018.55
2018-01-11T10:18:31.277Z,1018.57
2018-01-11T10:19:31.667Z,1018.63
2018-01-11T10:20:31.639Z,1018.62
2018-01-11T10:21:30.958Z,1018.61
2018-01-11T10:22:31.945Z,1018.6
2018-01-11T10:23:31.568Z,1018.62
2018-01-11T10:24:31.973Z,1018.62
2018-01-11T10:25:31.364Z,1018.63
2018-01-11T10:26:32.544Z,1018.58
2018-01-11T10:27:31.929Z,1018.59
2018-01-11T10:28:31.330Z,1018.6
2018-01-11T10:29:31.481Z,1018.56
2018-01-11T10:30:31.659Z,1018.54
2018-01-11T10:31:31.347Z,1018.55
2018-01-11T10:32:31.367Z,1018.57
2018-01-11T10:33:31.876Z,1018.59
2018-01-11T10:34:30.991Z,1018.55
2018-01-11T10:35:31.095Z,1018.54
2018-01-11T10:36:32.850Z,1018.54
2018-01-11T10:37:33.467Z,1018.59
2018-01-11T10:38:31.721Z,1018.56
2018-01-11T10:39:31.860Z,1018.55
2018-01-11T10:40:30.979Z,1018.57
2018-01-11T10:41:31.169Z,1018.57
2018-01-11T10:42:31.484Z,1018.55
2018-01-11T10:43:31.704Z,1018.54
2018-01-11T10:44:30.919Z,1018.52
2018-01-11T10:45:31.256Z,1018.53
2018-01-11T10:46:31.419Z,1018.53
2018-01-11T10:47:31.670Z,1018.52
2018-01-11T10:48:31.929Z,1018.5
2018-01-11T10:49:31.470Z,1018.52
2018-01-11T10:50:31.729Z,1018.57
2018-01-11T10:51:30.829Z,1018.53
2018-01-11T10:52:30.896Z,1018.52
2018-01-11T10:53:31.047Z,1018.58
2018-01-11T10:54:31.258Z,1018.52
2018-01-11T10:55:31.663Z,1018.53
2018-01-11T10:56:31.078Z,1018.56
2018-01-11T10:57:31.117Z,1018.55
2018-01-11T10:58:31.347Z,1018.52
2018-01-11T10:59:30.810Z,1018.52
2018-01-11T11:00:31.270Z,1018.5
2018-01-11T11:01:31.416Z,1018.52
2018-01-11T11:02:30.657Z,1018.51
2018-01-11T11:03:30.808Z,1018.51
2018-01-11T11:04:31.004Z,1018.52
2018-01-11T11:05:31.329Z,1018.49
2018-01-11T11:06:31.447Z,1018.51
2018-01-11T11:07:30.758Z,1018.51
2018-01-11T11:08:30.912Z,1018.48
2018-01-11T11:09:31.126Z,1018.48
2018-01-11T11:10:31.268Z,1018.5
2018-01-11T11:11:31.651Z,1018.49
2018-01-11T11:12:31.086Z,1018.48
2018-01-11T11:13:31.478Z,1018.46
2018-01-11T11:14:30.717Z,1018.49
2018-01-11T11:15:31.037Z,1018.44
2018-01-11T11:16:31.414Z,1018.5
2018-01-11T11:17:30.977Z,1018.5
2018-01-11T11:18:31.156Z,1018.48
2018-01-11T11:19:31.208Z,1018.51
2018-01-11T11:20:31.489Z,1018.5
2018-01-11T11:21:30.645Z,1018.52
2018-01-11T11:22:30.779Z,1018.51
2018-01-11T11:23:31.093Z,1018.5
2018-01-11T11:24:31.312Z,1018.46
2018-01-11T11:25:31.781Z,1018.49
2018-01-11T11:26:31.188Z,1018.45
2018-01-11T11:27:30.419Z,1018.46
2018-01-11T11:28:30.726Z,1018.45
2018-01-11T11:29:30.971Z,1018.49
2018-01-11T11:30:30.171Z,1018.46
2018-01-11T11:31:31.148Z,1018.4
2018-01-11T11:32:30.833Z,1018.42
2018-01-11T11:33:31.373Z,1018.4
2018-01-11T11:34:30.714Z,1018.44
2018-01-11T11:35:31.010Z,1018.42
2018-01-11T11:36:30.278Z,1018.39
2018-01-11T11:37:30.495Z,1018.38
2018-01-11T11:38:30.848Z,1018.37
2018-01-11T11:39:30.275Z,1018.37
2018-01-11T11:40:30.597Z,1018.4
2018-01-11T11:41:30.888Z,1018.36
2018-01-11T11:42:30.479Z,1018.37
2018-01-11T11:43:30.673Z,1018.4
2018-01-11T11:44:30.903Z,1018.39
2018-01-11T11:45:30.259Z,1018.44
2018-01-11T11:46:30.611Z,1018.4
2018-01-11T11:47:30.949Z,1018.45
2018-01-11T11:48:30.189Z,1018.41
2018-01-11T11:49:30.569Z,1018.43
2018-01-11T11:50:30.146Z,1018.38
2018-01-11T11:51:30.304Z,1018.44
2018-01-11T11:52:30.511Z,1018.43
2018-01-11T11:53:30.969Z,1018.46
2018-01-11T11:54:30.349Z,1018.44
2018-01-11T11:55:30.722Z,1018.5
2018-01-11T11:56:30.204Z,1018.53
2018-01-11T11:57:30.714Z,1018.53
2018-01-11T11:58:31.010Z,1018.54
2018-01-11T11:59:31.466Z,1018.56
2018-01-11T12:00:31.017Z,1018.57
2018-01-11T12:01:31.414Z,1018.57
2018-01-11T12:02:30.833Z,1018.57
2018-01-11T12:03:31.764Z,1018.59
2018-01-11T12:04:31.119Z,1018.58
2018-01-11T12:05:31.502Z,1018.61
2018-01-11T12:06:30.687Z,1018.62
2018-01-11T12:07:30.906Z,1018.63
2018-01-11T12:08:31.327Z,1018.66
2018-01-11T12:09:30.704Z,1018.65
2018-01-11T12:10:31.119Z,1018.71
2018-01-11T12:11:31.546Z,1018.66
2018-01-11T12:12:30.901Z,1018.66